createdAt,value
2019-02-04T00:00:42.156Z,1.30
2019-02-04T00:03:15.544Z,1.30
2019-02-04T00:05:47.964Z,1.30
2019-02-04T00:08:19.578Z,1.30
2019-02-04T00:10:51.468Z,1.30
2019-02-04T00:13:23.231Z,1.30
2019-02-04T00:15:54.672Z,1.30
2019-02-04T00:18:27.488Z,1.20
2019-02-04T00:20:59.077Z,1.10
2019-02-04T00:23:30.966Z,1.00
2019-02-04T00:26:02.543Z,1.10
2019-02-04T00:28:34.200Z,1.00
2019-02-04T00:31:08.038Z,1.00
2019-02-04T00:33:39.805Z,1.00
2019-02-04T00:36:11.232Z,0.90
2019-02-04T00:38:42.874Z,0.80
2019-02-04T00:41:14.370Z,0.80
2019-02-04T00:43:45.890Z,0.80
2019-02-04T00:46:17.637Z,0.70
2019-02-04T00:48:49.212Z,0.70
2019-02-04T00:51:20.734Z,0.70
2019-02-04T00:53:52.313Z,0.70
2019-02-04T00:56:23.802Z,0.70
2019-02-04T00:58:55.624Z,0.70
2019-02-04T01:01:27.128Z,0.80
2019-02-04T01:03:58.779Z,0.90
2019-02-04T01:06:30.282Z,0.90
2019-02-04T01:09:01.806Z,0.90
2019-02-04T01:11:34.942Z,0.80
2019-02-04T01:14:11.776Z,0.90
2019-02-04T01:16:43.390Z,0.80
2019-02-04T01:19:14.903Z,0.80
2019-02-04T01:21:46.627Z,0.70
2019-02-04T01:24:18.116Z,0.70
2019-02-04T01:26:49.574Z,0.60
2019-02-04T01:29:21.073Z,0.60
2019-02-04T01:31:52.545Z,0.50
2019-02-04T01:34:24.214Z,0.40
2019-02-04T01:36:55.806Z,0.40
2019-02-04T01:39:27.460Z,0.30
2019-02-04T01:41:58.992Z,0.30
2019-02-04T01:44:31.736Z,0.30
2019-02-04T01:47:14.117Z,0.50
2019-02-04T01:49:36.332Z,0.50
2019-02-04T01:52:07.873Z,0.50
2019-02-04T01:54:39.426Z,0.60
2019-02-04T01:57:10.957Z,0.60
2019-02-04T01:59:42.433Z,0.60
2019-02-04T02:02:13.854Z,0.50
2019-02-04T02:04:45.358Z,0.50
2019-02-04T02:07:16.968Z,0.60
2019-02-04T02:09:49.228Z,0.60
2019-02-04T02:12:23.844Z,0.50
2019-02-04T02:14:55.522Z,0.40
2019-02-04T02:17:30.284Z,0.50
2019-02-04T02:20:01.789Z,0.40
2019-02-04T02:22:33.368Z,0.50
2019-02-04T02:25:05.250Z,0.60
2019-02-04T02:27:36.750Z,0.40
2019-02-04T02:30:12.163Z,0.40
2019-02-04T02:32:43.887Z,0.30
2019-02-04T02:35:15.738Z,0.30
2019-02-04T02:37:47.309Z,0.30
2019-02-04T02:40:34.431Z,0.20
2019-02-04T02:43:07.215Z,0.10
2019-02-04T02:45:40.081Z,0.10
2019-02-04T02:48:11.517Z,0.00
2019-02-04T02:50:43.054Z,0.00
2019-02-04T02:53:14.510Z,0.00
2019-02-04T02:55:46.037Z,0.00
2019-02-04T02:58:17.507Z,-0.10
2019-02-04T03:01:01.249Z,-0.10
2019-02-04T03:03:32.950Z,-0.20
2019-02-04T03:06:04.626Z,-0.10
2019-02-04T03:08:36.113Z,-0.10
2019-02-04T03:11:07.639Z,-0.10
2019-02-04T03:13:39.075Z,-0.10
2019-02-04T03:16:10.559Z,-0.10
2019-02-04T03:18:42.017Z,-0.20
2019-02-04T03:21:13.487Z,-0.20
2019-02-04T03:23:44.957Z,-0.20
2019-02-04T03:26:16.527Z,-0.20
2019-02-04T03:28:48.039Z,-0.20
2019-02-04T03:31:19.491Z,-0.30
2019-02-04T03:33:50.983Z,-0.30
2019-02-04T03:36:22.574Z,-0.40
2019-02-04T03:39:00.350Z,-0.40
2019-02-04T03:41:34.000Z,-0.40
2019-02-04T03:44:05.753Z,-0.40
2019-02-04T03:46:37.377Z,-0.40
2019-02-04T03:49:12.789Z,-0.40
2019-02-04T03:51:44.455Z,-0.40
2019-02-04T03:54:16.026Z,-0.40
2019-02-04T03:56:47.529Z,-0.40
2019-02-04T03:59:20.081Z,-0.50
2019-02-04T04:01:51.657Z,-0.50
2019-02-04T04:04:23.185Z,-0.60
2019-02-04T04:07:04.737Z,-0.50
2019-02-04T04:09:36.322Z,-0.60
2019-02-04T04:12:07.861Z,-0.60
2019-02-04T04:14:39.514Z,-0.60
2019-02-04T04:17:11.063Z,-0.50
2019-02-04T04:19:42.613Z,-0.50
2019-02-04T04:22:14.195Z,-0.40
2019-02-04T04:24:45.655Z,-0.40
2019-02-04T04:27:17.315Z,-0.30
2019-02-04T04:29:48.805Z,-0.30
2019-02-04T04:32:20.270Z,-0.20
2019-02-04T04:34:51.910Z,-0.10
2019-02-04T04:37:23.382Z,-0.10
2019-02-04T04:39:54.952Z,0.00
2019-02-04T04:42:26.618Z,0.10
2019-02-04T04:44:58.106Z,0.10
2019-02-04T04:47:30.648Z,0.10
2019-02-04T04:50:02.117Z,0.10
2019-02-04T04:52:33.768Z,0.10
2019-02-04T04:55:06.342Z,0.20
2019-02-04T04:57:37.949Z,0.20
2019-02-04T05:00:17.585Z,0.20
2019-02-04T05:02:49.491Z,0.20
2019-02-04T05:05:20.977Z,0.10
2019-02-04T05:07:54.905Z,0.10
2019-02-04T05:10:26.574Z,0.20
2019-02-04T05:12:57.985Z,0.20
2019-02-04T05:15:31.028Z,0.20
2019-02-04T05:18:02.519Z,0.30
2019-02-04T05:20:34.022Z,0.30
2019-02-04T05:23:05.460Z,0.40
2019-02-04T05:25:37.281Z,0.40
2019-02-04T05:28:08.756Z,0.50
2019-02-04T05:30:40.194Z,0.60
2019-02-04T05:33:11.678Z,0.60
2019-02-04T05:35:43.164Z,0.60
2019-02-04T05:38:14.939Z,0.60
2019-02-04T05:40:46.456Z,0.70
2019-02-04T05:43:23.828Z,0.70
2019-02-04T05:45:55.387Z,0.60
2019-02-04T05:48:49.134Z,0.70
2019-02-04T05:51:16.794Z,0.70
2019-02-04T05:53:49.459Z,0.70
2019-02-04T05:56:21.262Z,0.60
2019-02-04T05:58:54.156Z,0.50
2019-02-04T06:01:25.782Z,0.60
2019-02-04T06:03:57.355Z,0.60
2019-02-04T06:06:30.130Z,0.60
2019-02-04T06:09:01.772Z,0.60
2019-02-04T06:11:37.498Z,0.70
2019-02-04T06:14:09.051Z,0.70
2019-02-04T06:16:40.501Z,0.70
2019-02-04T06:19:11.996Z,0.70
2019-02-04T06:21:43.530Z,0.80
2019-02-04T06:24:20.863Z,0.80
2019-02-04T06:26:52.450Z,0.90
2019-02-04T06:29:24.282Z,1.00
2019-02-04T06:31:55.734Z,1.00
2019-02-04T06:34:27.298Z,1.00
2019-02-04T06:37:00.089Z,0.90
2019-02-04T06:39:31.758Z,0.90
2019-02-04T06:42:03.316Z,0.90
2019-02-04T06:44:34.884Z,0.90
2019-02-04T06:47:06.954Z,0.90
2019-02-04T06:49:38.525Z,0.90
2019-02-04T06:52:09.952Z,0.90
2019-02-04T06:54:41.476Z,1.00
2019-02-04T06:57:12.995Z,1.10
2019-02-04T06:59:44.962Z,1.10
2019-02-04T07:02:18.511Z,1.10
2019-02-04T07:04:51.692Z,1.20
2019-02-04T07:07:23.132Z,1.20
2019-02-04T07:09:54.878Z,1.20
2019-02-04T07:12:26.612Z,1.30
2019-02-04T07:14:58.208Z,1.30
2019-02-04T07:17:29.732Z,1.30
2019-02-04T07:20:01.308Z,1.30
2019-02-04T07:22:33.122Z,1.40
2019-02-04T07:25:05.350Z,1.40
2019-02-04T07:27:38.516Z,1.30
2019-02-04T07:30:14.452Z,1.40
2019-02-04T07:32:46.004Z,1.50
2019-02-04T07:35:18.322Z,1.50
2019-02-04T07:37:49.802Z,1.60
2019-02-04T07:40:25.610Z,1.60
2019-02-04T07:42:57.134Z,1.50
2019-02-04T07:45:28.584Z,1.60
2019-02-04T07:48:00.442Z,1.60
2019-02-04T07:50:32.144Z,1.60
2019-02-04T07:53:03.826Z,1.70
2019-02-04T07:55:35.328Z,1.70
2019-02-04T07:58:06.951Z,1.60
2019-02-04T08:00:39.838Z,1.60
2019-02-04T08:03:11.475Z,1.70
2019-02-04T08:05:44.297Z,1.60
2019-02-04T08:08:15.826Z,1.60
2019-02-04T08:10:47.957Z,1.70
2019-02-04T08:13:20.034Z,1.80
2019-02-04T08:15:51.524Z,1.80
2019-02-04T08:18:23.117Z,1.90
2019-02-04T08:20:54.624Z,1.90
2019-02-04T08:23:26.400Z,2.00
2019-02-04T08:25:57.887Z,2.10
2019-02-04T08:28:29.418Z,2.10
2019-02-04T08:31:02.513Z,2.10
2019-02-04T08:33:33.946Z,2.10
2019-02-04T08:36:08.154Z,2.10
2019-02-04T08:38:39.747Z,2.10
2019-02-04T08:41:11.226Z,2.20
2019-02-04T08:43:44.724Z,2.20
2019-02-04T08:46:16.250Z,2.20
2019-02-04T08:48:48.747Z,2.30
2019-02-04T08:51:21.233Z,2.30
2019-02-04T08:53:52.817Z,2.40
2019-02-04T08:56:25.145Z,2.50
2019-02-04T08:58:56.994Z,2.60
2019-02-04T09:01:28.502Z,2.50
2019-02-04T09:04:01.101Z,2.60
2019-02-04T09:07:22.183Z,2.80
2019-02-04T09:09:53.925Z,2.80
2019-02-04T09:12:25.649Z,3.00
2019-02-04T09:14:57.309Z,3.00
2019-02-04T09:17:29.344Z,3.00
2019-02-04T09:20:09.814Z,2.90
2019-02-04T09:22:35.146Z,3.00
2019-02-04T09:25:09.371Z,3.10
2019-02-04T09:27:41.131Z,3.20
2019-02-04T09:30:21.309Z,3.30
2019-02-04T09:32:53.461Z,3.30
2019-02-04T09:35:25.468Z,3.40
2019-02-04T09:37:57.160Z,3.30
2019-02-04T09:40:41.949Z,3.40
2019-02-04T09:43:16.185Z,3.40
2019-02-04T09:45:50.807Z,3.50
2019-02-04T09:48:26.330Z,3.50
2019-02-04T09:51:02.944Z,3.60
2019-02-04T09:53:34.602Z,3.50
2019-02-04T09:56:06.762Z,3.50
2019-02-04T09:58:38.363Z,3.50
2019-02-04T10:01:09.898Z,3.50
2019-02-04T10:03:44.507Z,3.60
2019-02-04T10:06:17.396Z,3.60
2019-02-04T10:08:50.794Z,3.60
2019-02-04T10:11:22.285Z,3.60
2019-02-04T10:13:53.865Z,3.70
2019-02-04T10:16:25.379Z,3.60
2019-02-04T10:19:03.458Z,3.70
2019-02-04T10:21:38.312Z,3.70
2019-02-04T10:24:10.489Z,3.70
2019-02-04T10:26:42.205Z,3.70
2019-02-04T10:29:16.445Z,3.80
2019-02-04T10:31:47.918Z,3.80
2019-02-04T10:34:20.267Z,3.80
2019-02-04T10:36:52.259Z,3.90
2019-02-04T10:39:27.805Z,4.00
2019-02-04T10:42:03.435Z,4.10
2019-02-04T10:44:36.876Z,4.20
2019-02-04T10:47:12.392Z,4.30
2019-02-04T10:49:45.665Z,4.30
2019-02-04T10:52:17.697Z,4.40
2019-02-04T10:54:49.535Z,4.40
2019-02-04T10:57:27.657Z,4.40
2019-02-04T10:59:59.286Z,4.50
2019-02-04T11:02:30.866Z,4.60
2019-02-04T11:05:03.627Z,4.60
2019-02-04T11:07:37.932Z,4.60
2019-02-04T11:10:11.662Z,4.80
2019-02-04T11:12:43.672Z,4.90
2019-02-04T11:15:16.594Z,4.90
2019-02-04T11:17:48.159Z,4.90
2019-02-04T11:20:26.353Z,4.90
2019-02-04T11:22:58.371Z,5.00
2019-02-04T11:25:30.096Z,4.90
2019-02-04T11:28:01.685Z,4.90
2019-02-04T11:30:38.530Z,4.90
2019-02-04T11:33:10.687Z,4.90
2019-02-04T11:35:43.249Z,4.90
2019-02-04T11:38:14.849Z,5.00
2019-02-04T11:40:47.604Z,5.00
2019-02-04T11:43:19.442Z,4.90
2019-02-04T11:45:51.070Z,4.90
2019-02-04T11:48:22.748Z,5.00
2019-02-04T11:50:54.462Z,5.00
2019-02-04T11:53:32.959Z,4.90
2019-02-04T11:55:59.224Z,4.90
2019-02-04T11:58:30.809Z,5.00
2019-02-04T12:01:02.380Z,5.00
2019-02-04T12:03:35.982Z,5.00
2019-02-04T12:06:07.495Z,5.10
2019-02-04T12:08:38.971Z,5.10
2019-02-04T12:11:20.561Z,5.10
2019-02-04T12:13:54.139Z,5.20
2019-02-04T12:16:25.839Z,5.00
2019-02-04T12:18:59.700Z,5.00
2019-02-04T12:21:31.377Z,5.10
2019-02-04T12:24:02.972Z,5.10
2019-02-04T12:26:35.532Z,5.10
2019-02-04T12:29:07.448Z,5.10
2019-02-04T12:31:39.044Z,5.20
2019-02-04T12:34:15.399Z,5.20
2019-02-04T12:36:46.916Z,5.10
2019-02-04T12:39:22.292Z,5.10
2019-02-04T12:41:53.911Z,5.20
2019-02-04T12:44:25.407Z,5.20
2019-02-04T12:46:56.921Z,5.10
2019-02-04T12:49:28.541Z,5.20
2019-02-04T12:52:00.061Z,5.20
2019-02-04T12:54:31.737Z,5.20
2019-02-04T12:57:03.490Z,5.20
2019-02-04T12:59:35.199Z,5.10
2019-02-04T13:02:06.863Z,5.10
2019-02-04T13:04:38.665Z,5.20
2019-02-04T13:07:11.935Z,5.20
2019-02-04T13:09:43.391Z,5.30
2019-02-04T13:12:15.500Z,5.30
2019-02-04T13:14:49.281Z,5.20
2019-02-04T13:17:21.105Z,5.30
2019-02-04T13:19:52.650Z,5.30
2019-02-04T13:22:41.774Z,5.30
2019-02-04T13:25:36.925Z,5.30
2019-02-04T13:28:17.926Z,5.30
2019-02-04T13:30:52.113Z,5.30
2019-02-04T13:33:27.256Z,5.40
2019-02-04T13:36:36.676Z,5.30
2019-02-04T13:39:10.859Z,5.20
2019-02-04T13:42:09.543Z,5.10
2019-02-04T13:50:39.916Z,5.10
2019-02-04T13:53:11.547Z,5.10
2019-02-04T13:55:43.348Z,5.00
2019-02-04T13:58:15.125Z,5.00
2019-02-04T14:00:46.867Z,5.00
2019-02-04T14:03:18.454Z,5.00
2019-02-04T14:05:50.098Z,5.00
2019-02-04T14:08:21.806Z,5.00
2019-02-04T14:10:53.475Z,5.10
2019-02-04T14:13:25.541Z,5.10
2019-02-04T14:15:57.199Z,5.00
2019-02-04T14:18:28.672Z,5.00
2019-02-04T14:21:00.182Z,5.10
2019-02-04T14:23:31.749Z,5.00
2019-02-04T14:26:03.462Z,4.90
2019-02-04T14:28:35.085Z,4.90
2019-02-04T14:31:06.645Z,4.80
2019-02-04T14:33:38.292Z,4.80
2019-02-04T14:36:09.846Z,4.80
2019-02-04T14:38:41.369Z,4.80
2019-02-04T14:41:14.026Z,4.80
2019-02-04T14:44:07.505Z,4.80
2019-02-04T14:47:27.624Z,4.80
2019-02-04T14:51:28.366Z,4.80
2019-02-04T14:54:43.143Z,4.80
2019-02-04T14:58:20.197Z,4.80
2019-02-04T15:01:46.439Z,4.80
2019-02-04T15:05:18.960Z,4.70
2019-02-04T15:08:59.284Z,4.80
2019-02-04T15:12:00.166Z,4.70
2019-02-04T15:15:28.651Z,4.70
2019-02-04T15:19:07.973Z,4.70
2019-02-04T15:22:33.539Z,4.70
2019-02-04T15:26:11.240Z,4.70
2019-02-04T15:29:13.160Z,4.70
2019-02-04T15:32:41.193Z,4.70
2019-02-04T15:35:55.995Z,4.70
2019-02-04T15:39:30.741Z,4.60
2019-02-04T15:42:38.969Z,4.60
2019-02-04T15:45:59.896Z,4.70
2019-02-04T15:49:31.363Z,4.60
2019-02-04T15:52:03.313Z,4.60
2019-02-04T15:54:34.983Z,4.60
2019-02-04T15:57:09.252Z,4.60
2019-02-04T15:59:59.373Z,4.60
2019-02-04T16:02:31.280Z,4.60
2019-02-04T16:05:04.735Z,4.70
2019-02-04T16:07:36.297Z,4.60
2019-02-04T16:10:13.203Z,4.70
2019-02-04T16:12:47.678Z,4.70
2019-02-04T16:15:18.362Z,4.70
2019-02-04T16:17:50.419Z,4.60
2019-02-04T16:20:26.477Z,4.60
2019-02-04T16:22:59.035Z,4.60
2019-02-04T16:25:33.729Z,4.60
2019-02-04T16:28:05.873Z,4.60
2019-02-04T16:30:39.820Z,4.60
2019-02-04T16:33:11.340Z,4.70
2019-02-04T16:35:44.129Z,4.70
2019-02-04T16:38:15.704Z,4.70
2019-02-04T16:40:47.312Z,4.70
2019-02-04T16:43:19.330Z,4.70
2019-02-04T16:45:50.944Z,4.70
2019-02-04T16:48:22.468Z,4.70
2019-02-04T16:51:10.613Z,4.70
2019-02-04T16:53:27.238Z,4.70
2019-02-04T16:56:00.592Z,4.80
2019-02-04T16:58:32.310Z,4.80
2019-02-04T17:01:04.242Z,4.80
2019-02-04T17:03:35.858Z,4.80
2019-02-04T17:06:07.402Z,4.80
2019-02-04T17:08:38.992Z,4.80
2019-02-04T17:11:10.664Z,4.80
2019-02-04T17:13:44.317Z,4.80
2019-02-04T17:16:15.856Z,4.80
2019-02-04T17:18:47.508Z,4.80
2019-02-04T17:21:20.221Z,4.90
2019-02-04T17:23:52.407Z,4.90
2019-02-04T17:26:23.974Z,4.90
2019-02-04T17:28:55.607Z,4.80
2019-02-04T17:31:27.668Z,4.80
2019-02-04T17:33:59.424Z,4.80
2019-02-04T17:36:30.861Z,4.90
2019-02-04T17:39:02.412Z,4.80
2019-02-04T17:41:38.437Z,4.80
2019-02-04T17:44:10.156Z,4.90
2019-02-04T17:46:41.674Z,4.90
2019-02-04T17:49:12.991Z,4.80
2019-02-04T17:51:44.635Z,4.80
2019-02-04T17:54:16.575Z,4.80
2019-02-04T17:56:48.621Z,4.80
2019-02-04T17:59:23.030Z,4.80
2019-02-04T18:01:53.538Z,4.80
2019-02-04T18:04:26.286Z,4.80
2019-02-04T18:06:57.744Z,4.80
2019-02-04T18:09:29.330Z,4.80
2019-02-04T18:12:00.926Z,4.80
2019-02-04T18:14:32.510Z,4.80
2019-02-04T18:17:03.993Z,4.80
2019-02-04T18:19:37.358Z,4.70
2019-02-04T18:22:09.016Z,4.80
2019-02-04T18:24:40.676Z,4.80
2019-02-04T18:27:12.832Z,4.80
2019-02-04T18:29:44.372Z,4.90
2019-02-04T18:32:16.404Z,4.90
2019-02-04T18:34:48.029Z,4.80
2019-02-04T18:37:19.599Z,4.80
2019-02-04T18:39:51.241Z,4.80
2019-02-04T18:42:24.090Z,4.80
2019-02-04T18:44:56.143Z,4.70
2019-02-04T18:47:28.031Z,4.70
2019-02-04T18:49:59.644Z,4.70
2019-02-04T18:52:31.455Z,4.70
2019-02-04T18:55:03.291Z,4.70
2019-02-04T18:57:35.121Z,4.70
2019-02-04T19:00:09.774Z,4.70
2019-02-04T19:02:41.352Z,4.70
2019-02-04T19:05:14.487Z,4.70
2019-02-04T19:07:48.371Z,4.60
2019-02-04T19:10:22.960Z,4.60
2019-02-04T19:12:54.540Z,4.60
2019-02-04T19:15:26.287Z,4.60
2019-02-04T19:18:02.003Z,4.50
2019-02-04T19:20:36.947Z,4.60
2019-02-04T19:23:09.431Z,4.60
2019-02-04T19:25:41.130Z,4.60
2019-02-04T19:28:12.649Z,4.50
2019-02-04T19:31:14.119Z,4.50
2019-02-04T19:33:45.768Z,4.50
2019-02-04T19:36:18.546Z,4.60
2019-02-04T19:38:50.310Z,4.60
2019-02-04T19:41:21.939Z,4.60
2019-02-04T19:43:53.540Z,4.60
2019-02-04T19:46:25.148Z,4.60
2019-02-04T19:49:02.519Z,4.60
2019-02-04T19:51:34.294Z,4.60
2019-02-04T19:54:06.235Z,4.60
2019-02-04T19:56:37.916Z,4.60
2019-02-04T19:59:09.776Z,4.60
2019-02-04T20:01:41.675Z,4.60
2019-02-04T20:04:13.201Z,4.60
2019-02-04T20:06:45.006Z,4.60
2019-02-04T20:09:17.114Z,4.60
2019-02-04T20:11:48.988Z,4.60
2019-02-04T20:14:23.243Z,4.60
2019-02-04T20:16:54.939Z,4.60
2019-02-04T20:19:26.643Z,4.60
2019-02-04T20:21:58.191Z,4.60
2019-02-04T20:24:33.242Z,4.70
2019-02-04T20:27:03.117Z,4.60
2019-02-04T20:29:34.726Z,4.70
2019-02-04T20:32:06.247Z,4.60
2019-02-04T20:34:37.881Z,4.60
2019-02-04T20:37:09.384Z,4.70
2019-02-04T20:39:41.283Z,4.60
2019-02-04T20:42:13.863Z,4.60
2019-02-04T20:44:45.485Z,4.60
2019-02-04T20:47:17.045Z,4.50
2019-02-04T20:49:48.728Z,4.40
2019-02-04T20:52:20.826Z,4.50
2019-02-04T20:54:53.351Z,4.50
2019-02-04T20:57:24.991Z,4.40
2019-02-04T20:59:57.002Z,4.50
2019-02-04T21:02:28.636Z,4.50
2019-02-04T21:05:01.341Z,4.50
2019-02-04T21:07:33.730Z,4.40
2019-02-04T21:10:07.168Z,4.40
2019-02-04T21:12:38.763Z,4.40
2019-02-04T21:15:11.629Z,4.40
2019-02-04T21:17:43.287Z,4.50
2019-02-04T21:20:25.151Z,4.50
2019-02-04T21:22:57.046Z,4.60
2019-02-04T21:25:29.905Z,4.50
2019-02-04T21:28:01.461Z,4.50
2019-02-04T21:30:37.180Z,4.50
2019-02-04T21:33:09.350Z,4.50
2019-02-04T21:35:41.094Z,4.50
2019-02-04T21:38:12.979Z,4.50
2019-02-04T21:40:44.615Z,4.50
2019-02-04T21:43:16.305Z,4.50
2019-02-04T21:45:47.953Z,4.40
2019-02-04T21:48:19.563Z,4.40
2019-02-04T21:50:51.431Z,4.50
2019-02-04T21:53:22.998Z,4.50
2019-02-04T21:55:54.532Z,4.40
2019-02-04T21:58:26.044Z,4.40
2019-02-04T22:00:57.942Z,4.30
2019-02-04T22:03:29.569Z,4.30
2019-02-04T22:06:01.421Z,4.30
2019-02-04T22:08:33.286Z,4.30
2019-02-04T22:11:05.187Z,4.30
2019-02-04T22:13:36.972Z,4.30
2019-02-04T22:16:08.842Z,4.30
2019-02-04T22:18:40.414Z,4.30
2019-02-04T22:21:12.010Z,4.40
2019-02-04T22:23:43.603Z,4.30
2019-02-04T22:26:16.287Z,4.30
2019-02-04T22:28:49.685Z,4.30
2019-02-04T22:31:21.159Z,4.20
2019-02-04T22:33:53.143Z,4.20
2019-02-04T22:36:24.804Z,4.30
2019-02-04T22:38:56.557Z,4.20
2019-02-04T22:41:28.147Z,4.20
2019-02-04T22:43:59.774Z,4.30
2019-02-04T22:46:31.381Z,4.20
2019-02-04T22:49:04.576Z,4.20
2019-02-04T22:51:36.144Z,4.20
2019-02-04T22:54:08.254Z,4.20
2019-02-04T22:56:39.872Z,4.10
2019-02-04T22:59:11.363Z,4.10
2019-02-04T23:02:02.321Z,4.20
2019-02-04T23:04:33.907Z,4.20
2019-02-04T23:07:07.394Z,4.10
2019-02-04T23:09:39.242Z,4.10
2019-02-04T23:12:10.802Z,4.10
2019-02-04T23:14:45.390Z,4.00
2019-02-04T23:17:23.694Z,3.90
2019-02-04T23:19:55.539Z,4.00
2019-02-04T23:22:28.914Z,3.90
2019-02-04T23:25:00.445Z,3.90
2019-02-04T23:27:43.056Z,3.90
2019-02-04T23:30:18.846Z,3.90
2019-02-04T23:32:51.388Z,3.90
2019-02-04T23:35:24.524Z,3.80
2019-02-04T23:37:58.794Z,3.90
2019-02-04T23:40:30.393Z,3.80
2019-02-04T23:43:07.888Z,3.80
2019-02-04T23:45:39.980Z,3.80
2019-02-04T23:48:11.684Z,3.80
2019-02-04T23:50:43.492Z,3.60
2019-02-04T23:53:15.500Z,3.60
2019-02-04T23:55:54.426Z,3.60
2019-02-04T23:58:20.724Z,3.70
